Time;durP1;ratioP1;P1;durP2;ratioP2;P2;SDS_P1;SDS_P2;PMS_P1;PMS_P2;Temp;Humidity;BMP_temperature;BMP_pressure;BME280_temperature;BME280_humidity;BME280_pressure;Samples;Min_cycle;Max_cycle;Signal;HPM_P1;HPM_P2
2022/08/13 00:02:00;;;;;;;5.88;3.78;;;22.50;99.90;;;;;;5028036;28;20182;-62
2022/08/13 00:04:26;;;;;;;6.78;4.07;;;22.50;99.90;;;;;;5031396;28;20531;-61
2022/08/13 00:09:24;;;;;;;4.78;3.65;;;22.50;99.90;;;;;;5022065;28;20203;-61
2022/08/13 00:14:37;;;;;;;4.95;4.38;;;22.40;99.90;;;;;;5027903;28;20337;-61
2022/08/13 00:17:13;;;;;;;4.93;4.32;;;22.30;99.90;;;;;;5019162;28;20194;-61
2022/08/13 00:19:42;;;;;;;7.22;3.80;;;22.20;99.90;;;;;;5030306;28;20238;-61
2022/08/13 00:22:12;;;;;;;4.93;4.47;;;22.10;99.90;;;;;;5029607;28;20221;-61
2022/08/13 00:24:38;;;;;;;4.82;4.25;;;22.10;99.90;;;;;;5028013;28;20651;-62
2022/08/13 00:27:05;;;;;;;6.75;4.35;;;22.00;99.90;;;;;;5030968;28;20182;-61
2022/08/13 00:29:31;;;;;;;4.78;4.38;;;22.00;99.90;;;;;;5029186;28;20244;-62
2022/08/13 00:31:57;;;;;;;4.10;3.67;;;21.90;99.90;;;;;;5036197;28;20184;-61
2022/08/13 00:34:23;;;;;;;17.65;4.80;;;21.90;99.90;;;;;;5028817;28;20594;-61
2022/08/13 00:36:48;;;;;;;4.80;3.95;;;21.90;99.90;;;;;;5030433;28;20210;-61
2022/08/13 00:39:14;;;;;;;4.00;3.70;;;21.90;99.90;;;;;;5043030;28;20191;-61
2022/08/13 00:41:45;;;;;;;4.63;3.67;;;21.90;99.90;;;;;;5031062;28;20662;-62
2022/08/13 00:44:14;;;;;;;4.70;3.92;;;21.90;99.90;;;;;;5025622;28;20183;-61
2022/08/13 00:46:40;;;;;;;3.60;3.38;;;21.80;99.90;;;;;;5021418;28;20211;-61
2022/08/13 00:49:07;;;;;;;5.15;4.65;;;21.80;99.90;;;;;;5030438;28;20191;-61
2022/08/13 00:51:35;;;;;;;5.38;4.57;;;21.70;99.90;;;;;;5034915;28;20191;-63
2022/08/13 00:54:04;;;;;;;3.88;3.60;;;21.70;99.90;;;;;;5026784;28;20183;-61
2022/08/13 00:56:35;;;;;;;6.55;4.50;;;21.70;99.90;;;;;;5030523;28;20615;-61
2022/08/13 00:59:11;;;;;;;5.97;4.40;;;21.70;99.90;;;;;;5025035;28;20191;-61
2022/08/13 01:01:39;;;;;;;4.32;3.85;;;21.70;99.90;;;;;;5021480;28;20240;-61
2022/08/13 01:04:07;;;;;;;4.72;4.28;;;21.70;99.90;;;;;;5029947;28;20175;-61
2022/08/13 01:06:33;;;;;;;6.40;4.45;;;21.60;99.90;;;;;;5032057;28;20257;-62
2022/08/13 01:08:59;;;;;;;5.97;4.40;;;21.50;99.90;;;;;;5033318;28;20187;-61
2022/08/13 01:11:27;;;;;;;5.28;3.88;;;21.50;99.90;;;;;;5035137;28;20237;-61
2022/08/13 01:13:53;;;;;;;3.90;3.60;;;21.40;99.90;;;;;;5030096;28;20183;-61
2022/08/13 01:16:19;;;;;;;5.07;4.30;;;21.40;99.90;;;;;;5027214;28;20233;-62
2022/08/13 01:18:49;;;;;;;4.65;4.22;;;21.40;99.90;;;;;;5033384;28;20198;-61
2022/08/13 01:21:21;;;;;;;4.18;3.78;;;21.40;99.90;;;;;;5032698;28;20597;-62
2022/08/13 01:23:49;;;;;;;3.95;3.65;;;21.60;99.90;;;;;;5032639;28;20179;-61
2022/08/13 01:26:17;;;;;;;6.13;4.03;;;21.60;99.90;;;;;;5032695;28;20257;-62
2022/08/13 01:28:44;;;;;;;4.60;4.20;;;21.60;99.90;;;;;;5034316;28;20182;-61
2022/08/13 01:31:11;;;;;;;6.47;4.07;;;21.50;99.90;;;;;;5034398;28;20710;-61
2022/08/13 01:33:38;;;;;;;7.53;5.35;;;21.40;99.90;;;;;;5033501;28;20197;-61
2022/08/13 01:36:06;;;;;;;4.60;3.80;;;21.50;99.90;;;;;;5034682;28;20209;-61
2022/08/13 01:38:33;;;;;;;3.83;3.53;;;21.50;99.90;;;;;;5029950;28;20186;-62
2022/08/13 01:41:00;;;;;;;4.10;3.67;;;21.40;99.90;;;;;;5027400;28;20655;-62
2022/08/13 01:43:29;;;;;;;3.88;3.40;;;21.30;99.90;;;;;;5027117;28;20194;-61
2022/08/13 01:45:59;;;;;;;3.92;3.55;;;21.30;99.90;;;;;;5022711;28;20730;-61
2022/08/13 01:51:21;;;;;;;4.45;4.00;;;21.10;99.90;;;;;;5032494;28;20685;-61
2022/08/13 01:53:58;;;;;;;4.05;3.75;;;21.20;99.90;;;;;;5028023;28;20269;-63
2022/08/13 01:56:25;;;;;;;9.32;4.28;;;21.20;99.90;;;;;;5034219;28;20240;-61
2022/08/13 01:58:57;;;;;;;4.22;3.92;;;21.10;99.90;;;;;;5024531;28;20275;-61
2022/08/13 02:01:25;;;;;;;3.35;3.08;;;20.90;99.90;;;;;;5032045;28;20178;-65
2022/08/13 02:03:58;;;;;;;4.18;3.80;;;20.90;99.90;;;;;;5029182;28;20194;-61
2022/08/13 02:06:28;;;;;;;6.63;3.55;;;20.90;99.90;;;;;;5012703;28;20238;-61
2022/08/13 02:08:58;;;;;;;7.05;3.75;;;20.90;99.90;;;;;;5026072;28;20190;-62
2022/08/13 02:11:24;;;;;;;4.00;3.70;;;20.90;99.90;;;;;;5032013;28;20186;-61
2022/08/13 02:13:53;;;;;;;5.95;4.10;;;20.80;99.90;;;;;;5032464;28;20199;-61
2022/08/13 02:16:19;;;;;;;3.83;3.53;;;20.80;99.90;;;;;;5031965;28;20232;-61
2022/08/13 02:18:45;;;;;;;3.85;3.47;;;20.70;99.90;;;;;;5014651;28;20289;-64
2022/08/13 02:21:11;;;;;;;7.50;4.47;;;20.60;99.90;;;;;;5027915;28;20277;-62
2022/08/13 02:23:37;;;;;;;7.80;4.18;;;20.50;99.90;;;;;;5033235;28;20208;-61
2022/08/13 02:26:05;;;;;;;5.25;3.92;;;20.50;99.90;;;;;;5019751;28;20265;-61
2022/08/13 02:28:39;;;;;;;4.47;4.07;;;20.60;99.90;;;;;;5009550;28;20230;-61
2022/08/13 02:31:07;;;;;;;5.70;4.22;;;20.50;99.90;;;;;;4998522;28;20229;-62
2022/08/13 02:33:35;;;;;;;4.38;3.97;;;20.40;99.90;;;;;;5032477;28;20228;-62
2022/08/13 02:36:07;;;;;;;6.90;4.45;;;20.30;99.90;;;;;;5031986;28;20256;-61
2022/08/13 02:38:32;;;;;;;4.45;4.05;;;20.30;99.90;;;;;;5029377;28;20179;-61
2022/08/13 02:43:46;;;;;;;4.25;3.55;;;20.30;99.90;;;;;;5019704;28;20198;-61
2022/08/13 02:46:11;;;;;;;4.78;3.88;;;20.10;99.90;;;;;;5031412;28;20241;-61
2022/08/13 02:48:37;;;;;;;6.07;4.57;;;20.10;99.90;;;;;;5032432;28;20225;-61
2022/08/13 02:51:03;;;;;;;4.30;3.97;;;20.00;99.90;;;;;;5014863;28;20692;-62
2022/08/13 02:53:30;;;;;;;4.97;4.28;;;20.00;99.90;;;;;;5026909;28;20191;-64
2022/08/13 02:55:55;;;;;;;5.20;3.97;;;20.00;99.90;;;;;;5032827;28;20554;-62
2022/08/13 02:58:21;;;;;;;4.43;4.00;;;20.00;99.90;;;;;;5022211;28;20191;-61
2022/08/13 03:00:49;;;;;;;4.05;3.75;;;20.10;99.90;;;;;;5030510;28;20185;-61
2022/08/13 03:03:19;;;;;;;4.43;4.13;;;20.00;99.90;;;;;;5032118;28;20175;-62
2022/08/13 03:05:45;;;;;;;4.65;4.20;;;20.00;99.90;;;;;;5013707;28;20268;-61
2022/08/13 03:08:12;;;;;;;6.22;4.32;;;19.90;99.90;;;;;;5031820;28;20198;-61
2022/08/13 03:10:40;;;;;;;5.03;4.63;;;19.80;99.90;;;;;;5027817;28;20218;-62
2022/08/13 03:13:32;;;;;;;5.55;4.95;;;19.80;99.90;;;;;;5014357;28;20182;-61
2022/08/13 03:16:00;;;;;;;5.25;4.43;;;19.70;99.90;;;;;;5027044;28;20643;-61
2022/08/13 03:18:25;;;;;;;7.18;4.32;;;19.70;99.90;;;;;;5022884;28;20696;-61
2022/08/13 03:20:52;;;;;;;5.72;4.47;;;19.60;99.90;;;;;;5026834;28;20274;-62
2022/08/13 03:23:17;;;;;;;6.05;4.72;;;20.00;99.90;;;;;;5028471;28;20223;-62
2022/08/13 03:25:44;;;;;;;8.43;4.70;;;19.80;99.90;;;;;;5018103;28;20235;-62
2022/08/13 03:28:10;;;;;;;4.80;4.30;;;19.70;99.90;;;;;;5031476;28;20190;-61
2022/08/13 03:30:36;;;;;;;5.10;4.57;;;19.60;99.90;;;;;;5032490;28;20205;-61
2022/08/13 03:33:13;;;;;;;4.82;4.43;;;19.50;99.90;;;;;;5024403;28;20187;-61
2022/08/13 03:35:40;;;;;;;5.38;4.95;;;19.50;99.90;;;;;;5031299;28;20681;-62
2022/08/13 03:38:08;;;;;;;4.97;4.47;;;19.50;99.90;;;;;;5030213;28;20204;-62
2022/08/13 03:43:19;;;;;;;4.20;3.90;;;19.40;99.90;;;;;;5031481;28;20243;-66
2022/08/13 03:45:45;;;;;;;4.20;3.80;;;19.30;99.90;;;;;;5030443;28;20265;-62
2022/08/13 03:48:13;;;;;;;4.70;4.30;;;19.30;99.90;;;;;;5031671;28;20194;-62
2022/08/13 03:50:40;;;;;;;4.80;4.15;;;19.30;99.90;;;;;;5034988;28;20198;-61
2022/08/13 03:53:06;;;;;;;7.07;4.03;;;19.30;99.90;;;;;;5030644;28;20217;-61
2022/08/13 03:55:33;;;;;;;4.47;3.83;;;19.40;99.90;;;;;;5027642;28;20257;-61
2022/08/13 03:58:00;;;;;;;5.03;4.63;;;19.30;99.90;;;;;;5014609;28;20217;-61
2022/08/13 04:00:30;;;;;;;3.92;3.63;;;19.40;99.90;;;;;;5030161;28;20182;-62
2022/08/13 04:02:56;;;;;;;5.50;3.55;;;19.40;99.90;;;;;;5030400;28;20187;-62
2022/08/13 04:05:22;;;;;;;5.68;5.13;;;19.50;99.90;;;;;;5028478;28;20211;-61
2022/08/13 04:07:50;;;;;;;6.03;3.83;;;19.40;99.90;;;;;;5023380;28;20190;-61
2022/08/13 04:10:16;;;;;;;5.82;5.07;;;19.40;99.90;;;;;;5010943;28;20274;-60
2022/08/13 04:12:42;;;;;;;5.40;4.25;;;19.30;99.90;;;;;;5034460;28;20198;-61
2022/08/13 04:15:08;;;;;;;4.10;3.72;;;19.20;99.90;;;;;;5019666;28;20194;-60
2022/08/13 04:17:37;;;;;;;4.93;4.53;;;19.10;99.90;;;;;;5030642;28;20210;-61
2022/08/13 04:20:05;;;;;;;7.95;5.18;;;19.10;99.90;;;;;;5031369;28;20281;-61
2022/08/13 04:22:33;;;;;;;5.85;3.88;;;19.00;99.90;;;;;;5031178;28;20206;-61
2022/08/13 04:24:58;;;;;;;4.13;3.78;;;18.90;99.90;;;;;;5029826;28;20610;-61
2022/08/13 04:27:25;;;;;;;6.22;4.72;;;19.00;99.90;;;;;;5033371;28;20274;-61
2022/08/13 04:29:51;;;;;;;3.90;3.60;;;19.00;99.90;;;;;;5029925;28;20286;-61
2022/08/13 04:32:22;;;;;;;4.72;3.80;;;19.00;99.90;;;;;;5034287;28;20194;-61
2022/08/13 04:34:48;;;;;;;5.25;4.68;;;18.90;99.90;;;;;;5034337;28;20244;-60
2022/08/13 04:37:14;;;;;;;4.90;3.92;;;18.80;99.90;;;;;;5034912;28;20632;-61
2022/08/13 04:39:39;;;;;;;4.45;4.00;;;18.90;99.90;;;;;;5035408;28;20551;-64
2022/08/13 04:42:07;;;;;;;5.35;4.35;;;18.90;99.90;;;;;;5032396;28;20550;-60
2022/08/13 04:44:34;;;;;;;4.82;4.18;;;18.90;99.90;;;;;;5033973;28;20187;-61
2022/08/13 04:46:59;;;;;;;5.93;3.92;;;18.70;99.90;;;;;;5031911;28;20253;-61
2022/08/13 04:49:25;;;;;;;7.45;5.20;;;18.70;99.90;;;;;;5033961;28;20218;-61
2022/08/13 04:51:51;;;;;;;4.47;4.07;;;18.80;99.90;;;;;;5035067;28;20194;-60
2022/08/13 04:54:17;;;;;;;6.88;4.30;;;18.70;99.90;;;;;;5035408;28;20535;-61
2022/08/13 04:56:43;;;;;;;10.63;4.72;;;18.60;99.90;;;;;;5022013;28;20640;-61
2022/08/13 04:59:09;;;;;;;5.05;4.05;;;18.70;99.90;;;;;;5033193;28;20187;-60
2022/08/13 05:01:34;;;;;;;5.28;4.10;;;18.70;99.90;;;;;;4997137;28;20652;-60
2022/08/13 05:04:00;;;;;;;4.18;3.78;;;18.70;99.90;;;;;;5033127;28;20564;-60
2022/08/13 05:06:26;;;;;;;5.47;3.72;;;18.80;99.90;;;;;;5031950;28;20561;-61
2022/08/13 05:08:52;;;;;;;3.88;3.47;;;18.80;99.90;;;;;;5033670;28;20282;-60
2022/08/13 05:11:19;;;;;;;3.40;3.20;;;18.80;99.90;;;;;;5033588;28;20190;-61
2022/08/13 05:13:45;;;;;;;4.57;4.00;;;18.90;99.90;;;;;;5033436;28;20281;-60
2022/08/13 05:16:17;;;;;;;4.68;4.25;;;18.90;99.90;;;;;;5032625;28;20190;-61
2022/08/13 05:18:50;;;;;;;5.75;4.22;;;19.00;99.90;;;;;;5027983;28;20205;-60
2022/08/13 05:21:16;;;;;;;10.63;3.92;;;19.00;99.90;;;;;;5032325;28;20183;-61
2022/08/13 05:23:42;;;;;;;7.40;4.43;;;19.00;99.90;;;;;;5021875;28;20186;-60
2022/08/13 05:26:10;;;;;;;4.82;3.95;;;19.10;99.90;;;;;;5034698;28;20217;-60
2022/08/13 05:28:37;;;;;;;3.92;3.63;;;19.10;99.90;;;;;;5032397;28;20213;-61
2022/08/13 05:31:05;;;;;;;4.65;4.25;;;19.20;99.90;;;;;;5033011;28;20183;-60
2022/08/13 05:33:31;;;;;;;8.65;4.13;;;19.20;99.90;;;;;;5034191;28;20193;-61
2022/08/13 05:36:02;;;;;;;3.88;3.58;;;19.20;99.90;;;;;;5031189;28;20555;-64
2022/08/13 05:38:30;;;;;;;4.55;4.15;;;19.20;99.90;;;;;;5032418;28;20271;-60
2022/08/13 05:40:58;;;;;;;3.72;3.28;;;19.20;99.90;;;;;;5029731;28;20600;-61
2022/08/13 05:43:27;;;;;;;3.92;3.60;;;19.30;99.90;;;;;;5022561;28;20213;-61
2022/08/13 05:45:59;;;;;;;8.75;4.13;;;19.30;99.90;;;;;;5033019;28;20218;-61
2022/08/13 05:48:30;;;;;;;5.03;4.25;;;19.30;99.90;;;;;;5032243;28;20194;-60
2022/08/13 05:50:59;;;;;;;5.15;4.50;;;19.50;99.90;;;;;;5034171;28;20183;-60
2022/08/13 05:53:26;;;;;;;9.15;4.10;;;19.80;99.90;;;;;;5033705;28;20182;-60
2022/08/13 05:55:53;;;;;;;4.45;3.58;;;20.00;99.90;;;;;;5032661;28;20187;-60
2022/08/13 05:58:20;;;;;;;4.45;3.75;;;20.00;99.90;;;;;;5031870;28;20614;-61
2022/08/13 06:03:31;;;;;;;5.07;4.50;;;20.00;99.90;;;;;;5016018;28;20194;-61
2022/08/13 06:06:05;;;;;;;4.75;4.35;;;19.90;99.90;;;;;;5033804;28;20214;-60
2022/08/13 06:08:36;;;;;;;4.72;4.25;;;20.00;99.90;;;;;;5024943;28;20199;-60
2022/08/13 06:11:07;;;;;;;4.18;3.83;;;20.00;99.90;;;;;;5031125;28;20202;-60
2022/08/13 06:13:35;;;;;;;4.32;3.92;;;20.10;99.90;;;;;;5031566;28;20198;-61
2022/08/13 06:16:03;;;;;;;3.70;3.47;;;20.20;99.90;;;;;;5030943;28;20209;-64
2022/08/13 06:18:32;;;;;;;3.97;3.50;;;20.20;99.90;;;;;;5033552;28;20209;-60
2022/08/13 06:21:01;;;;;;;3.90;3.60;;;20.10;99.90;;;;;;5025796;28;20183;-61
2022/08/13 06:23:29;;;;;;;4.45;3.63;;;19.90;99.90;;;;;;5033198;28;20226;-61
2022/08/13 06:25:57;;;;;;;5.25;3.60;;;19.90;99.90;;;;;;5032654;28;20267;-61
2022/08/13 06:28:28;;;;;;;4.03;3.70;;;19.90;99.90;;;;;;5014390;28;20213;-62
2022/08/13 06:30:55;;;;;;;5.07;4.57;;;20.00;99.90;;;;;;5023138;28;20179;-60
2022/08/13 06:33:22;;;;;;;6.85;3.53;;;20.10;99.90;;;;;;5030552;28;20763;-61
2022/08/13 06:36:04;;;;;;;4.65;3.20;;;20.30;99.90;;;;;;5024078;28;20198;-61
2022/08/13 06:38:36;;;;;;;3.78;3.55;;;20.50;99.90;;;;;;5031777;28;20206;-61
2022/08/13 06:41:04;;;;;;;4.18;3.60;;;20.60;99.90;;;;;;5025418;28;20645;-62
2022/08/13 06:43:35;;;;;;;6.20;4.05;;;20.70;99.90;;;;;;5030174;28;20546;-61
2022/08/13 06:46:03;;;;;;;6.93;3.05;;;20.70;99.90;;;;;;5032900;28;20225;-61
2022/08/13 06:48:29;;;;;;;3.67;3.42;;;20.80;99.90;;;;;;5030652;28;20654;-61
2022/08/13 06:50:56;;;;;;;4.40;3.42;;;21.00;99.90;;;;;;5021935;28;20191;-61
2022/08/13 06:53:22;;;;;;;4.05;3.45;;;21.10;99.90;;;;;;5023388;28;20188;-61
2022/08/13 06:55:50;;;;;;;4.40;3.13;;;21.10;99.90;;;;;;5032930;28;20661;-60
2022/08/13 06:58:16;;;;;;;4.10;3.65;;;21.20;99.90;;;;;;5014340;28;20179;-61
2022/08/13 07:00:43;;;;;;;3.25;3.05;;;21.30;99.90;;;;;;5019191;28;20178;-61
2022/08/13 07:03:12;;;;;;;4.22;3.75;;;21.40;99.90;;;;;;5024346;28;20190;-60
2022/08/13 07:05:41;;;;;;;5.03;3.13;;;21.50;99.90;;;;;;5031658;28;20211;-60
2022/08/13 07:08:09;;;;;;;6.25;3.60;;;21.60;99.90;;;;;;5030127;28;20655;-64
2022/08/13 07:10:40;;;;;;;4.85;3.85;;;21.70;99.90;;;;;;5019141;28;20191;-63
2022/08/13 07:13:06;;;;;;;3.72;3.42;;;21.90;99.90;;;;;;5032152;28;20178;-63
2022/08/13 07:15:32;;;;;;;2.70;2.55;;;22.00;99.90;;;;;;5032774;28;20209;-62
2022/08/13 07:17:58;;;;;;;3.28;2.88;;;22.10;99.90;;;;;;5032013;28;20194;-63
2022/08/13 07:20:25;;;;;;;2.90;2.70;;;22.30;99.90;;;;;;5023952;28;20187;-61
2022/08/13 07:22:53;;;;;;;3.30;2.90;;;22.40;99.90;;;;;;5028586;28;20591;-63
2022/08/13 07:25:22;;;;;;;4.38;3.65;;;22.50;99.90;;;;;;5011532;28;20214;-61
2022/08/13 07:27:51;;;;;;;7.45;3.95;;;22.70;99.90;;;;;;5029511;28;20191;-62
2022/08/13 07:30:17;;;;;;;3.20;2.90;;;23.00;99.90;;;;;;5024749;28;20655;-68
2022/08/13 07:32:42;;;;;;;3.05;2.85;;;23.30;99.90;;;;;;5008688;28;20186;-71
2022/08/13 07:35:09;;;;;;;5.10;3.13;;;23.60;99.90;;;;;;5031144;28;20193;-69
2022/08/13 07:37:36;;;;;;;2.83;2.65;;;23.70;99.90;;;;;;5021947;28;20175;-69
2022/08/13 07:40:03;;;;;;;3.97;3.00;;;24.10;99.90;;;;;;5024029;28;20694;-69
2022/08/13 07:42:31;;;;;;;3.50;2.60;;;25.60;99.90;;;;;;5032094;28;20222;-68
2022/08/13 07:45:01;;;;;;;2.35;2.25;;;27.50;99.90;;;;;;5028124;28;20594;-68
2022/08/13 07:47:29;;;;;;;4.50;2.67;;;29.60;99.20;;;;;;5027238;28;20260;-69
2022/08/13 07:49:58;;;;;;;2.90;2.50;;;31.20;98.30;;;;;;5026438;28;20192;-68
2022/08/13 07:52:27;;;;;;;5.20;2.30;;;31.80;96.00;;;;;;5026404;28;20248;-68
2022/08/13 07:54:53;;;;;;;2.75;2.55;;;33.30;95.80;;;;;;5028695;28;20625;-68
2022/08/13 07:57:18;;;;;;;2.15;1.95;;;34.60;94.20;;;;;;5031529;28;20189;-68
2022/08/13 07:59:44;;;;;;;2.85;1.58;;;34.80;93.90;;;;;;5012255;28;20542;-68
2022/08/13 08:02:12;;;;;;;2.40;2.20;;;35.70;93.60;;;;;;5032929;28;20712;-68
2022/08/13 08:04:37;;;;;;;1.95;1.80;;;36.90;92.90;;;;;;5018564;28;20578;-68
2022/08/13 08:07:04;;;;;;;1.80;1.70;;;37.80;92.20;;;;;;5003275;28;20249;-68
2022/08/13 08:09:31;;;;;;;2.20;2.00;;;38.90;91.80;;;;;;5027918;28;20652;-68
2022/08/13 08:14:45;;;;;;;1.58;1.58;;;39.20;90.80;;;;;;5035245;28;20662;-69
2022/08/13 08:17:11;;;;;;;1.98;1.42;;;39.90;90.10;;;;;;5034762;28;20190;-68
2022/08/13 08:19:47;;;;;;;1.52;1.42;;;40.30;88.50;;;;;;5030615;28;20205;-68
2022/08/13 08:22:15;;;;;;;5.68;1.50;;;39.50;86.30;;;;;;5035544;28;20260;-68
2022/08/13 08:24:48;;;;;;;1.42;1.38;;;39.40;89.40;;;;;;5027858;28;20179;-69
2022/08/13 08:27:16;;;;;;;1.63;1.52;;;40.00;88.00;;;;;;5031048;28;20240;-69
2022/08/13 08:29:44;;;;;;;1.50;1.40;;;40.40;85.70;;;;;;5013108;28;20186;-69
2022/08/13 08:32:11;;;;;;;1.75;1.65;;;40.70;85.60;;;;;;5015301;28;20550;-69
2022/08/13 08:34:41;;;;;;;9.02;1.70;;;41.40;84.40;;;;;;5034322;28;20244;-68
2022/08/13 08:37:08;;;;;;;1.48;1.38;;;41.70;82.60;;;;;;5033481;28;20281;-68
2022/08/13 08:42:38;;;;;;;4.75;1.80;;;41.90;83.40;;;;;;5032634;28;20240;-68
2022/08/13 08:45:14;;;;;;;3.03;2.08;;;42.10;82.00;;;;;;5034092;28;20178;-68
2022/08/13 08:47:41;;;;;;;1.88;1.75;;;41.70;82.50;;;;;;5027823;28;20217;-68
2022/08/13 08:50:09;;;;;;;2.33;2.13;;;42.30;82.00;;;;;;5033726;28;20551;-69
2022/08/13 08:55:20;;;;;;;1.42;1.30;;;42.30;80.10;;;;;;5027943;28;20740;-68
2022/08/13 08:57:46;;;;;;;1.75;1.65;;;42.30;79.10;;;;;;5033971;28;20186;-69
2022/08/13 09:00:18;;;;;;;2.78;1.48;;;42.30;79.40;;;;;;5031043;28;20186;-68
2022/08/13 09:02:47;;;;;;;1.42;1.20;;;42.20;79.60;;;;;;5029122;28;20188;-68
2022/08/13 09:05:16;;;;;;;2.78;1.90;;;42.10;77.50;;;;;;5032918;28;20201;-68
2022/08/13 09:07:45;;;;;;;1.55;1.35;;;42.00;77.60;;;;;;5049091;28;20608;-68
2022/08/13 09:10:12;;;;;;;1.20;1.08;;;41.60;79.20;;;;;;5021802;28;20707;-68
2022/08/13 09:12:41;;;;;;;1.42;1.33;;;42.30;76.60;;;;;;5032218;28;20189;-67
2022/08/13 09:15:07;;;;;;;1.38;1.27;;;42.40;75.90;;;;;;5033724;28;20182;-69
2022/08/13 09:17:34;;;;;;;1.80;1.70;;;41.40;76.50;;;;;;5012957;28;20226;-68
2022/08/13 09:20:01;;;;;;;1.65;1.20;;;39.50;77.20;;;;;;5031609;28;20202;-74
2022/08/13 09:22:26;;;;;;;1.55;1.45;;;37.30;77.90;;;;;;5023915;28;20514;-77
2022/08/13 09:24:56;;;;;;;5.78;2.55;;;36.10;80.60;;;;;;5002650;28;20185;-75
2022/08/13 09:27:22;;;;;;;1.48;1.38;;;35.60;81.90;;;;;;5031628;28;20193;-72
2022/08/13 09:29:50;;;;;;;1.45;1.30;;;34.50;81.10;;;;;;5013971;28;20190;-78
2022/08/13 09:32:16;;;;;;;3.90;1.90;;;33.70;81.20;;;;;;5027205;28;20183;-75
2022/08/13 09:34:44;;;;;;;1.50;1.40;;;33.10;82.40;;;;;;5018626;28;20198;-74
2022/08/13 09:37:12;;;;;;;1.80;1.70;;;32.60;82.00;;;;;;5033106;28;20186;-73
2022/08/13 09:39:54;;;;;;;2.67;1.55;;;32.50;84.20;;;;;;4680091;28;10000097;-71
2022/08/13 09:42:25;;;;;;;1.10;1.10;;;32.40;82.10;;;;;;5020608;28;20198;-73
2022/08/13 09:44:56;;;;;;;2.30;1.45;;;32.30;82.00;;;;;;5023341;28;20212;-74
2022/08/13 09:47:23;;;;;;;1.73;1.38;;;32.30;84.50;;;;;;5007942;28;20343;-72
2022/08/13 09:49:49;;;;;;;1.10;1.10;;;32.10;83.80;;;;;;5011783;28;20270;-71
2022/08/13 09:52:16;;;;;;;1.15;1.15;;;32.10;85.20;;;;;;5029769;28;20280;-71
2022/08/13 09:54:42;;;;;;;1.42;1.35;;;31.90;82.20;;;;;;5029828;28;20497;-72
2022/08/13 09:57:09;;;;;;;1.83;1.73;;;31.40;83.30;;;;;;5036136;28;20656;-71
2022/08/13 09:59:36;;;;;;;1.40;1.30;;;31.30;84.60;;;;;;5028116;28;20307;-73
2022/08/13 10:02:09;;;;;;;1.42;1.42;;;31.30;85.40;;;;;;5010278;28;20217;-71
2022/08/13 10:04:40;;;;;;;1.48;1.38;;;31.20;84.30;;;;;;5018943;28;20185;-72
2022/08/13 10:07:08;;;;;;;1.70;1.60;;;31.30;84.10;;;;;;5010942;28;20224;-70
2022/08/13 10:09:36;;;;;;;1.60;1.50;;;31.20;85.00;;;;;;5001277;28;20245;-77
2022/08/13 10:12:07;;;;;;;1.52;1.52;;;31.20;84.40;;;;;;5038199;28;20605;-73
2022/08/13 10:14:34;;;;;;;1.02;1.02;;;31.00;84.90;;;;;;5028515;28;20182;-73
2022/08/13 10:17:00;;;;;;;1.08;1.00;;;30.90;84.20;;;;;;5029412;28;20182;-72
2022/08/13 10:19:26;;;;;;;2.13;1.92;;;31.00;86.00;;;;;;5029325;28;20208;-72
2022/08/13 10:21:52;;;;;;;1.63;1.50;;;31.10;87.30;;;;;;5029005;28;20190;-74
2022/08/13 10:24:17;;;;;;;1.30;1.30;;;31.40;85.80;;;;;;5004961;28;20277;-74
2022/08/13 10:26:43;;;;;;;1.60;1.50;;;31.50;82.30;;;;;;5026090;28;20218;-74
2022/08/13 10:29:10;;;;;;;2.38;1.30;;;31.40;82.00;;;;;;5028629;28;20194;-74
2022/08/13 10:31:37;;;;;;;1.30;1.25;;;31.30;82.30;;;;;;5027993;28;20186;-73
2022/08/13 10:34:04;;;;;;;1.30;1.30;;;31.30;82.70;;;;;;5016354;28;20181;-73
2022/08/13 10:36:32;;;;;;;1.67;1.58;;;31.20;82.10;;;;;;5029615;28;20195;-73
2022/08/13 10:38:58;;;;;;;2.95;1.50;;;30.90;82.80;;;;;;5028656;28;20196;-73
2022/08/13 10:41:24;;;;;;;1.25;1.23;;;30.70;83.30;;;;;;5023016;28;20745;-71
2022/08/13 10:43:51;;;;;;;1.55;1.42;;;30.60;84.60;;;;;;5041944;28;20194;-72
2022/08/13 10:46:17;;;;;;;1.15;1.10;;;30.80;83.10;;;;;;5025832;28;20720;-73
2022/08/13 10:48:44;;;;;;;3.22;1.85;;;31.00;81.60;;;;;;5027307;28;20182;-72
2022/08/13 10:51:11;;;;;;;1.70;1.60;;;30.90;82.90;;;;;;5025395;28;20768;-73
2022/08/13 10:53:58;;;;;;;2.17;2.08;;;31.20;84.40;;;;;;5026114;28;20192;-73
2022/08/13 10:56:27;;;;;;;2.45;1.95;;;31.00;83.10;;;;;;5029056;28;20196;-72
2022/08/13 10:58:57;;;;;;;1.65;1.65;;;30.80;85.00;;;;;;5022925;28;20186;-71
2022/08/13 11:01:24;;;;;;;5.07;1.55;;;31.00;86.40;;;;;;5027734;28;20228;-72
2022/08/13 11:03:58;;;;;;;1.63;1.52;;;31.30;86.20;;;;;;5028142;28;20186;-70
2022/08/13 11:06:26;;;;;;;1.85;1.40;;;30.90;84.30;;;;;;5020406;28;20216;-71
2022/08/13 11:08:54;;;;;;;1.33;1.33;;;31.00;84.70;;;;;;5029346;28;20543;-73
2022/08/13 11:11:20;;;;;;;1.08;1.08;;;30.70;83.60;;;;;;5029014;28;20185;-61
2022/08/13 11:13:46;;;;;;;1.50;1.40;;;30.80;83.50;;;;;;5031682;28;20193;-68
2022/08/13 11:18:58;;;;;;;1.27;1.23;;;30.50;83.00;;;;;;5031597;28;20236;-68
2022/08/13 11:21:25;;;;;;;1.63;1.52;;;30.50;82.70;;;;;;5027966;28;20198;-68
2022/08/13 11:23:51;;;;;;;2.17;1.50;;;30.60;83.00;;;;;;5032310;28;20705;-67
2022/08/13 11:26:17;;;;;;;2.28;1.25;;;30.70;82.80;;;;;;5026509;28;20250;-65
2022/08/13 11:28:42;;;;;;;1.55;1.50;;;30.50;82.60;;;;;;5024821;28;20627;-66
2022/08/13 11:31:08;;;;;;;1.02;1.02;;;30.50;83.10;;;;;;5032190;28;20565;-66
2022/08/13 11:33:34;;;;;;;2.83;1.33;;;30.40;83.80;;;;;;5030874;28;20182;-66
2022/08/13 11:35:59;;;;;;;1.20;1.13;;;30.50;83.90;;;;;;5027546;28;20589;-67
2022/08/13 11:38:25;;;;;;;1.20;1.20;;;30.70;83.60;;;;;;5011712;28;20201;-66
2022/08/13 11:40:53;;;;;;;1.85;1.73;;;30.90;84.20;;;;;;5008009;28;20187;-65
2022/08/13 11:43:30;;;;;;;1.35;1.25;;;30.80;83.00;;;;;;5023968;28;20179;-65
2022/08/13 11:45:57;;;;;;;1.27;1.17;;;30.70;82.90;;;;;;5024061;28;20304;-61
2022/08/13 11:48:23;;;;;;;0.85;0.85;;;30.80;82.20;;;;;;5012854;28;20194;-60
2022/08/13 11:50:50;;;;;;;1.08;1.08;;;30.90;84.20;;;;;;5031728;28;20208;-65
2022/08/13 11:53:17;;;;;;;1.20;1.20;;;31.00;82.60;;;;;;5013449;28;20601;-67
2022/08/13 11:55:43;;;;;;;1.55;1.45;;;30.90;82.80;;;;;;5030642;28;20194;-71
2022/08/13 11:58:10;;;;;;;1.20;1.20;;;30.80;82.40;;;;;;5003945;28;20228;-67
2022/08/13 12:00:37;;;;;;;1.17;1.17;;;30.70;83.30;;;;;;5031594;28;20189;-66
2022/08/13 12:03:03;;;;;;;0.93;0.93;;;30.90;83.30;;;;;;5013876;28;20182;-69
2022/08/13 12:05:29;;;;;;;1.23;1.23;;;31.00;82.50;;;;;;5028879;28;20561;-68
2022/08/13 12:07:56;;;;;;;1.20;1.20;;;30.90;81.90;;;;;;5021269;28;20178;-71
2022/08/13 12:10:22;;;;;;;4.32;2.03;;;30.90;83.00;;;;;;5030974;28;20190;-69
2022/08/13 12:12:49;;;;;;;1.13;1.02;;;30.90;82.60;;;;;;5012056;28;20197;-65
2022/08/13 12:15:15;;;;;;;1.08;1.08;;;31.00;83.40;;;;;;5031725;28;20189;-65
2022/08/13 12:17:43;;;;;;;1.92;1.23;;;31.10;82.60;;;;;;5010630;28;20547;-62
2022/08/13 12:20:12;;;;;;;1.20;1.10;;;31.20;82.10;;;;;;5030910;28;20174;-67
2022/08/13 12:22:40;;;;;;;1.48;1.20;;;31.00;81.60;;;;;;5024132;28;20196;-66
2022/08/13 12:25:07;;;;;;;0.90;0.80;;;30.80;82.30;;;;;;5030166;28;20182;-68
2022/08/13 12:27:33;;;;;;;1.25;1.23;;;30.90;82.00;;;;;;5031463;28;20182;-69
2022/08/13 12:29:58;;;;;;;1.27;1.17;;;31.10;81.60;;;;;;5027090;28;20265;-65
2022/08/13 12:32:24;;;;;;;1.52;1.30;;;31.10;81.60;;;;;;5030664;28;20190;-66
2022/08/13 12:34:50;;;;;;;1.70;1.63;;;31.20;81.70;;;;;;5026267;28;20194;-66
2022/08/13 12:37:16;;;;;;;1.23;1.23;;;31.10;80.60;;;;;;5028250;28;20566;-66
2022/08/13 12:39:41;;;;;;;0.88;0.88;;;30.70;82.50;;;;;;5029768;28;20190;-64
2022/08/13 12:42:07;;;;;;;3.60;1.00;;;30.80;82.10;;;;;;5029391;28;20640;-68
2022/08/13 12:44:33;;;;;;;2.45;1.85;;;31.00;82.10;;;;;;5032716;28;20194;-65
2022/08/13 12:46:59;;;;;;;1.23;1.23;;;31.10;82.00;;;;;;5032878;28;20716;-65
2022/08/13 12:49:24;;;;;;;1.27;1.15;;;31.10;82.90;;;;;;5032170;28;20583;-65
2022/08/13 12:51:50;;;;;;;1.38;1.27;;;31.10;82.50;;;;;;5024796;28;20278;-64
2022/08/13 12:54:16;;;;;;;1.20;1.20;;;31.10;81.40;;;;;;5031284;28;20643;-65
2022/08/13 12:56:42;;;;;;;1.02;1.02;;;31.10;82.10;;;;;;5032609;28;20201;-73
2022/08/13 12:59:08;;;;;;;1.42;1.38;;;30.90;81.60;;;;;;5029908;28;20182;-73
2022/08/13 13:01:34;;;;;;;1.63;1.52;;;30.90;82.40;;;;;;5025696;28;20224;-73
2022/08/13 13:04:00;;;;;;;1.40;1.40;;;30.80;82.70;;;;;;5029755;28;20244;-73
2022/08/13 13:06:26;;;;;;;1.23;1.17;;;30.80;82.30;;;;;;5032657;28;20221;-71
2022/08/13 13:08:51;;;;;;;1.23;1.20;;;30.80;83.60;;;;;;5034306;28;20651;-62
2022/08/13 13:11:17;;;;;;;1.27;1.27;;;31.00;82.90;;;;;;5032667;28;20210;-62
2022/08/13 13:13:46;;;;;;;1.92;1.00;;;31.10;82.30;;;;;;5027108;28;20631;-62
2022/08/13 13:16:12;;;;;;;1.88;1.77;;;31.20;82.50;;;;;;5019169;28;20203;-62